Time;durP1;ratioP1;P1;durP2;ratioP2;P2;SDS_P1;SDS_P2;PMS_P1;PMS_P2;Temp;Humidity;BMP_temperature;BMP_pressure;BME280_temperature;BME280_humidity;BME280_pressure;Samples;Min_cycle;Max_cycle;Signal;HPM_P1;HPM_P2
2023/06/09 00:05:03;;;;;;;1999.90;999.90;;;17.70;99.90;;;;;;6691045;89;20190;-81
2023/06/09 00:15:04;;;;;;;1999.90;999.90;;;17.70;99.90;;;;;;6679958;88;20401;-80
2023/06/09 00:25:06;;;;;;;1999.90;999.90;;;17.60;99.90;;;;;;6682857;89;20612;-80
2023/06/09 00:35:06;;;;;;;1999.90;999.90;;;17.30;99.90;;;;;;6686717;88;20229;-80
2023/06/09 00:45:07;;;;;;;1999.90;999.90;;;17.30;99.90;;;;;;6679253;88;20206;-81
2023/06/09 00:55:09;;;;;;;1999.90;999.90;;;17.20;99.90;;;;;;6680064;89;20248;-80
2023/06/09 01:05:12;;;;;;;1999.90;999.90;;;17.10;99.90;;;;;;6688249;89;20206;-82
2023/06/09 01:15:25;;;;;;;1999.90;999.90;;;16.80;99.90;;;;;;6680965;89;20196;-81
2023/06/09 01:25:45;;;;;;;1999.90;999.90;;;16.70;99.90;;;;;;6678043;89;20183;-83
2023/06/09 01:35:47;;;;;;;1999.90;999.90;;;16.70;99.90;;;;;;6679520;89;20188;-81
2023/06/09 01:45:47;;;;;;;1999.90;999.90;;;16.70;99.90;;;;;;6680900;89;20194;-80
2023/06/09 01:55:54;;;;;;;1999.90;999.90;;;16.70;99.90;;;;;;6678622;88;20313;-80
2023/06/09 02:05:57;;;;;;;1999.90;999.90;;;16.50;99.90;;;;;;6678089;89;20324;-80
2023/06/09 02:27:00;;;;;;;1999.90;999.90;;;16.40;99.90;;;;;;6712097;88;20723;-85
2023/06/09 02:37:02;;;;;;;1999.90;999.90;;;16.30;99.90;;;;;;6711384;88;20155;-83
2023/06/09 02:47:04;;;;;;;1999.90;999.90;;;16.30;99.90;;;;;;6711864;88;20186;-83
2023/06/09 02:57:07;;;;;;;1999.90;999.90;;;16.20;99.90;;;;;;6765198;87;20220;-84
2023/06/09 03:07:09;;;;;;;1999.90;999.90;;;16.10;99.90;;;;;;6765111;87;20175;-85
2023/06/09 03:17:09;;;;;;;1999.90;999.90;;;16.00;99.90;;;;;;6730594;88;20170;-85
2023/06/09 03:27:11;;;;;;;1999.90;999.90;;;15.90;99.90;;;;;;6726657;88;20217;-83
2023/06/09 03:37:14;;;;;;;1999.90;999.90;;;15.80;99.90;;;;;;6738291;87;20195;-84
2023/06/09 03:47:14;;;;;;;1999.90;999.90;;;15.60;99.90;;;;;;6710391;88;20227;-84
2023/06/09 03:57:15;;;;;;;1999.90;999.90;;;15.40;99.90;;;;;;6711258;88;20309;-83
2023/06/09 04:07:16;;;;;;;1999.90;999.90;;;15.30;99.90;;;;;;6711131;88;20206;-83
2023/06/09 04:17:16;;;;;;;1999.90;999.90;;;15.30;99.90;;;;;;6709750;88;20194;-83
2023/06/09 04:27:19;;;;;;;1999.90;999.90;;;15.20;99.90;;;;;;6711508;88;20285;-83
2023/06/09 04:37:20;;;;;;;1999.90;999.90;;;15.40;99.90;;;;;;6710790;88;20516;-83
2023/06/09 04:47:24;;;;;;;1999.90;999.90;;;15.50;99.90;;;;;;6710745;88;20205;-83
2023/06/09 04:57:28;;;;;;;1999.90;999.90;;;15.60;99.90;;;;;;6708222;88;20300;-83
2023/06/09 05:07:28;;;;;;;1999.90;999.90;;;15.60;99.90;;;;;;6703425;89;20204;-82
2023/06/09 05:17:31;;;;;;;1999.90;999.90;;;15.70;99.90;;;;;;6705508;89;20179;-82
2023/06/09 05:27:32;;;;;;;1999.90;999.90;;;15.80;99.90;;;;;;6698685;89;20193;-81
2023/06/09 05:37:32;;;;;;;1999.90;999.90;;;16.10;99.90;;;;;;6693481;89;20240;-83
2023/06/09 05:47:33;;;;;;;1999.90;999.90;;;16.30;99.90;;;;;;6700981;88;20646;-81
2023/06/09 05:57:34;;;;;;;1999.90;999.90;;;16.80;99.90;;;;;;6693569;89;20612;-81
2023/06/09 06:07:36;;;;;;;1999.90;999.90;;;17.40;99.90;;;;;;6691936;88;20280;-82
2023/06/09 06:17:37;;;;;;;1999.90;999.90;;;18.30;99.90;;;;;;6709694;88;20599;-81
2023/06/09 06:27:37;;;;;;;1999.90;999.90;;;19.00;99.90;;;;;;6712064;88;20216;-81
2023/06/09 06:37:38;;;;;;;1999.90;999.90;;;19.60;99.90;;;;;;6696835;89;20199;-82
2023/06/09 06:47:41;;;;;;;1999.90;999.90;;;20.20;99.90;;;;;;6711383;88;20288;-81
2023/06/09 06:57:41;;;;;;;1999.90;999.90;;;21.00;99.90;;;;;;6697342;89;20229;-80
2023/06/09 07:07:43;;;;;;;1999.90;999.90;;;21.70;99.90;;;;;;6701736;89;20214;-81
2023/06/09 07:17:44;;;;;;;1999.90;999.90;;;22.90;99.90;;;;;;6714604;88;20210;-81
2023/06/09 07:27:45;;;;;;;1999.90;999.90;;;23.30;99.90;;;;;;6704557;88;20827;-83
2023/06/09 07:37:46;;;;;;;1999.90;999.90;;;23.80;99.90;;;;;;6715088;88;20243;-83
2023/06/09 07:47:47;;;;;;;1999.90;999.90;;;24.50;99.90;;;;;;6699153;89;20175;-84
2023/06/09 07:57:47;;;;;;;1999.90;999.90;;;24.80;99.90;;;;;;6698226;89;20201;-82
2023/06/09 08:07:48;;;;;;;1999.90;999.90;;;25.20;99.90;;;;;;6698366;89;20757;-82
2023/06/09 08:18:09;;;;;;;1999.90;999.90;;;25.10;99.90;;;;;;6688013;77;20206;-79
2023/06/09 08:28:09;;;;;;;1999.90;999.90;;;25.60;99.90;;;;;;6704786;88;20229;-78
2023/06/09 08:38:10;;;;;;;1999.90;999.90;;;25.60;99.10;;;;;;6690678;88;20239;-78
2023/06/09 08:48:16;;;;;;;1999.90;999.90;;;26.40;98.70;;;;;;6693433;88;20228;-78
2023/06/09 08:58:17;;;;;;;1999.90;999.90;;;26.80;98.70;;;;;;6671662;89;20295;-79
2023/06/09 09:08:19;;;;;;;1999.90;999.90;;;27.10;97.50;;;;;;6672226;89;20200;-78
2023/06/09 09:18:20;;;;;;;1999.90;999.90;;;27.10;97.10;;;;;;6684033;88;20691;-79
2023/06/09 09:28:20;;;;;;;1999.90;999.90;;;28.00;96.90;;;;;;6683820;89;20221;-80
2023/06/09 09:38:29;;;;;;;1999.90;999.90;;;28.50;95.30;;;;;;6673470;89;20193;-80
2023/06/09 09:48:30;;;;;;;1999.90;999.90;;;28.20;94.00;;;;;;6683431;88;20195;-81
2023/06/09 09:58:40;;;;;;;1999.90;999.90;;;28.90;93.50;;;;;;6685782;88;20264;-80
2023/06/09 10:08:42;;;;;;;1999.90;999.90;;;28.20;91.30;;;;;;6683084;89;20321;-80
2023/06/09 10:18:43;;;;;;;;;;;28.40;91.00;;;;;;6716200;87;20322;-80
2023/06/09 10:28:43;;;;;;;1999.90;999.90;;;28.50;90.90;;;;;;6761190;88;20063;-80
2023/06/09 10:38:50;;;;;;;1999.90;999.90;;;29.20;89.90;;;;;;6761354;88;20200;-80
2023/06/09 10:48:51;;;;;;;1999.90;999.90;;;28.80;88.50;;;;;;6682389;89;20312;-80
2023/06/09 10:58:52;;;;;;;1999.90;999.90;;;29.00;87.50;;;;;;6690971;88;20285;-80
2023/06/09 11:09:14;;;;;;;1999.90;999.90;;;30.30;85.60;;;;;;6691644;89;20203;-80
2023/06/09 11:19:23;;;;;;;1999.90;999.90;;;30.70;84.30;;;;;;6691291;89;20211;-81
2023/06/09 11:29:23;;;;;;;1999.90;999.90;;;30.10;82.30;;;;;;6673944;89;20196;-80
2023/06/09 11:39:24;;;;;;;1999.90;999.90;;;30.50;80.00;;;;;;6673598;89;20217;-81
2023/06/09 11:49:25;;;;;;;1999.90;999.90;;;30.50;79.80;;;;;;6673009;89;20203;-80
2023/06/09 11:59:25;;;;;;;1999.90;999.90;;;30.30;78.30;;;;;;6689557;89;20256;-81
2023/06/09 12:09:26;;;;;;;1999.90;999.90;;;30.20;78.90;;;;;;6688608;88;20290;-81
2023/06/09 12:19:28;;;;;;;1999.90;999.90;;;31.20;78.40;;;;;;6684512;88;20286;-81
2023/06/09 12:29:29;;;;;;;1999.90;999.90;;;31.90;75.60;;;;;;6704079;88;20199;-80
2023/06/09 12:39:33;;;;;;;1999.90;999.90;;;31.80;75.00;;;;;;6685804;88;20698;-79
2023/06/09 12:49:34;;;;;;;1999.90;999.90;;;32.40;73.80;;;;;;6697788;88;20208;-81
2023/06/09 12:59:35;;;;;;;1999.90;999.90;;;31.80;74.50;;;;;;6673542;88;20192;-80
2023/06/09 13:09:35;;;;;;;1999.90;999.90;;;31.70;71.20;;;;;;6688601;88;20260;-80
2023/06/09 13:19:36;;;;;;;1999.90;999.90;;;31.30;71.60;;;;;;6678793;88;20385;-80
2023/06/09 13:29:37;;;;;;;1999.90;999.90;;;31.60;72.80;;;;;;6680872;88;20217;-80
2023/06/09 13:39:37;;;;;;;1999.90;999.90;;;32.20;72.60;;;;;;6685660;89;20246;-79
2023/06/09 13:49:38;;;;;;;1999.90;999.90;;;32.10;71.40;;;;;;6687706;89;20207;-80
2023/06/09 13:59:39;;;;;;;1999.90;999.90;;;31.90;70.70;;;;;;6679840;89;20199;-80
2023/06/09 14:09:41;;;;;;;;;;;32.00;71.50;;;;;;6676569;89;20267;-79
2023/06/09 14:19:41;;;;;;;1999.90;999.90;;;32.10;71.80;;;;;;6689178;88;20094;-80
2023/06/09 14:29:42;;;;;;;1999.90;999.90;;;31.50;71.80;;;;;;6708236;88;20287;-79
2023/06/09 14:39:43;;;;;;;1999.90;999.90;;;32.10;71.40;;;;;;6690901;88;20191;-79
2023/06/09 14:49:44;;;;;;;1999.90;999.90;;;31.10;71.90;;;;;;6681668;88;20537;-79
2023/06/09 14:59:45;;;;;;;1999.90;999.90;;;31.40;72.20;;;;;;6688314;88;20187;-79
2023/06/09 15:09:45;;;;;;;1999.90;999.90;;;32.20;70.20;;;;;;6671477;89;20722;-79
2023/06/09 15:19:46;;;;;;;1999.90;999.90;;;33.20;69.30;;;;;;6674459;88;20582;-80
2023/06/09 15:29:47;;;;;;;1999.90;999.90;;;32.50;66.30;;;;;;6687825;88;20212;-79
2023/06/09 15:39:47;;;;;;;1999.90;999.90;;;32.40;66.90;;;;;;6688495;88;20640;-80
2023/06/09 15:49:48;;;;;;;1999.90;999.90;;;32.20;67.20;;;;;;6689663;88;20220;-79
2023/06/09 15:59:48;;;;;;;1999.90;999.90;;;31.60;66.60;;;;;;6690787;88;20191;-80
2023/06/09 16:09:49;;;;;;;1999.90;999.90;;;31.70;67.20;;;;;;6693771;88;20264;-79
2023/06/09 16:19:49;;;;;;;1999.90;999.90;;;31.70;66.90;;;;;;6692601;89;20202;-80
2023/06/09 16:29:52;;;;;;;1999.90;999.90;;;31.10;67.80;;;;;;6692855;88;20222;-80
2023/06/09 16:39:53;;;;;;;1999.90;999.90;;;31.20;68.50;;;;;;6714475;88;20326;-83
2023/06/09 17:10:00;;;;;;;1999.90;999.90;;;30.40;70.40;;;;;;6760435;87;20765;-80
2023/06/09 17:20:01;;;;;;;1999.90;999.90;;;29.60;72.40;;;;;;6752385;87;20246;-76
2023/06/09 17:30:03;;;;;;;1999.90;999.90;;;29.70;70.00;;;;;;6757799;88;20173;-77
2023/06/09 17:40:08;;;;;;;1999.90;999.90;;;29.70;69.70;;;;;;6746436;88;20201;-77
2023/06/09 17:50:09;;;;;;;1999.90;999.90;;;29.50;69.80;;;;;;6742718;88;20202;-77
2023/06/09 18:00:10;;;;;;;1999.90;999.90;;;29.60;71.20;;;;;;6744435;87;20820;-77
2023/06/09 18:10:11;;;;;;;1999.90;999.90;;;29.30;72.50;;;;;;6746805;88;20208;-77
2023/06/09 18:20:12;;;;;;;1999.90;999.90;;;29.10;73.40;;;;;;6752594;88;20193;-77
2023/06/09 18:30:14;;;;;;;1999.90;999.90;;;29.00;71.20;;;;;;6750144;88;20929;-80
2023/06/09 18:40:14;;;;;;;1999.90;999.90;;;28.60;71.60;;;;;;6750319;88;20609;-80
2023/06/09 18:50:15;;;;;;;1999.90;999.90;;;28.10;70.60;;;;;;6752300;88;20185;-78
2023/06/09 19:00:16;;;;;;;1999.90;999.90;;;27.70;71.90;;;;;;6744747;87;20266;-78
2023/06/09 19:10:16;;;;;;;1999.90;999.90;;;27.40;72.70;;;;;;6748208;88;20505;-77
2023/06/09 19:20:17;;;;;;;1999.90;999.90;;;27.10;73.70;;;;;;6754560;88;20193;-78
2023/06/09 19:30:17;;;;;;;1999.90;999.90;;;26.80;74.00;;;;;;6749342;88;20198;-77
2023/06/09 19:40:18;;;;;;;1999.90;999.90;;;26.70;74.40;;;;;;6747491;88;20365;-78
2023/06/09 19:50:19;;;;;;;1999.90;999.90;;;26.60;75.30;;;;;;6756390;88;20293;-78
2023/06/09 20:00:19;;;;;;;1999.90;999.90;;;26.40;75.70;;;;;;6751652;87;20504;-77
2023/06/09 20:10:20;;;;;;;1999.90;999.90;;;26.20;77.00;;;;;;6751836;88;20223;-79
2023/06/09 20:31:22;;;;;;;1999.90;999.90;;;25.60;78.80;;;;;;6762782;88;20263;-80
2023/06/09 20:41:23;;;;;;;1999.90;999.90;;;25.30;79.60;;;;;;6767020;87;20287;-79
2023/06/09 20:51:23;;;;;;;1999.90;999.90;;;24.90;80.60;;;;;;6770649;87;20224;-81
2023/06/09 21:01:25;;;;;;;1999.90;999.90;;;24.70;81.30;;;;;;6767537;88;20185;-84
2023/06/09 21:11:26;;;;;;;1999.90;999.90;;;24.60;82.20;;;;;;6763784;88;20165;-84
2023/06/09 21:21:27;;;;;;;1999.90;999.90;;;24.30;83.30;;;;;;6766345;88;20245;-86
2023/06/09 21:31:28;;;;;;;1999.90;999.90;;;23.90;84.30;;;;;;6767119;88;20173;-85
2023/06/09 21:41:29;;;;;;;1999.90;999.90;;;23.80;85.10;;;;;;6763894;88;20168;-85
2023/06/09 21:51:30;;;;;;;1999.90;999.90;;;23.40;85.30;;;;;;6765784;88;20164;-85
2023/06/09 22:11:59;;;;;;;1999.90;999.90;;;23.10;87.00;;;;;;6791882;77;20953;-86
2023/06/09 22:22:02;;;;;;;1999.90;999.90;;;22.80;87.60;;;;;;6801066;87;20237;-86
2023/06/09 22:32:03;;;;;;;1999.90;999.90;;;23.00;87.10;;;;;;6799282;87;20285;-85
2023/06/09 22:42:05;;;;;;;1999.90;999.90;;;22.60;89.30;;;;;;6803845;87;20194;-84
2023/06/09 22:52:06;;;;;;;1999.90;999.90;;;22.40;90.00;;;;;;6803415;87;20269;-85
2023/06/09 23:02:07;;;;;;;1999.90;999.90;;;22.40;90.20;;;;;;6783860;87;20259;-84
2023/06/09 23:12:08;;;;;;;1999.90;999.90;;;22.50;90.00;;;;;;6783745;87;20163;-84
2023/06/09 23:22:12;;;;;;;1999.90;999.90;;;22.60;89.90;;;;;;6783339;87;20723;-84
2023/06/09 23:32:13;;;;;;;1999.90;999.90;;;22.60;90.40;;;;;;6780835;87;20895;-82
2023/06/09 23:42:14;;;;;;;1999.90;999.90;;;22.50;90.50;;;;;;6784305;87;20209;-84
2023/06/09 23:52:15;;;;;;;1999.90;999.90;;;22.30;90.80;;;;;;6784535;87;20182;-84
